createdAt,value
2023-02-26T00:01:27.012Z,37.53
2023-02-26T00:03:55.459Z,37.56
2023-02-26T00:06:22.503Z,37.70
2023-02-26T00:08:50.155Z,37.67
2023-02-26T00:11:17.383Z,37.77
2023-02-26T00:13:46.841Z,37.69
2023-02-26T00:16:34.582Z,37.67
2023-02-26T00:19:03.521Z,37.56
2023-02-26T00:21:30.998Z,37.51
2023-02-26T00:23:57.818Z,37.60
2023-02-26T00:26:26.759Z,37.47
2023-02-26T00:28:53.984Z,37.31
2023-02-26T00:31:24.035Z,37.24
2023-02-26T00:33:55.103Z,37.32
2023-02-26T00:36:44.076Z,37.37
2023-02-26T00:39:21.149Z,37.34
2023-02-26T00:41:48.097Z,37.17
2023-02-26T00:44:15.428Z,37.11
2023-02-26T00:46:48.751Z,37.09
2023-02-26T00:49:24.412Z,37.17
2023-02-26T00:51:53.511Z,37.25
2023-02-26T00:54:24.860Z,37.18
2023-02-26T00:56:52.482Z,37.26
2023-02-26T00:59:20.333Z,37.25
2023-02-26T01:01:48.085Z,37.19
2023-02-26T01:04:18.155Z,37.11
2023-02-26T01:06:47.368Z,37.04
2023-02-26T01:09:31.378Z,37.10
2023-02-26T01:12:01.006Z,36.87
2023-02-26T01:14:28.458Z,36.83
2023-02-26T01:17:15.180Z,36.87
2023-02-26T01:19:48.053Z,36.77
2023-02-26T01:22:30.052Z,36.76
2023-02-26T01:25:05.247Z,36.64
2023-02-26T01:27:37.009Z,36.79
2023-02-26T01:30:05.184Z,36.87
2023-02-26T01:32:50.601Z,36.93
2023-02-26T01:35:20.889Z,36.87
2023-02-26T01:37:55.868Z,37.04
2023-02-26T01:40:29.327Z,36.93
2023-02-26T01:42:57.831Z,36.87
2023-02-26T01:45:34.999Z,36.83
2023-02-26T01:48:07.395Z,36.83
2023-02-26T01:50:35.310Z,36.71
2023-02-26T01:53:20.185Z,36.69
2023-02-26T01:56:00.045Z,36.68
2023-02-26T01:58:28.027Z,36.70
2023-02-26T02:00:55.635Z,36.69
2023-02-26T02:03:22.847Z,36.69
2023-02-26T02:06:03.740Z,36.68
2023-02-26T02:08:32.923Z,36.70
2023-02-26T02:11:01.114Z,36.72
2023-02-26T02:13:59.557Z,36.76
2023-02-26T02:16:37.909Z,36.64
2023-02-26T02:19:26.061Z,36.52
2023-02-26T02:22:32.552Z,36.49
2023-02-26T02:25:11.683Z,36.56
2023-02-26T02:28:19.751Z,36.40
2023-02-26T02:31:08.511Z,36.53
2023-02-26T02:33:59.979Z,36.49
2023-02-26T02:36:52.843Z,36.49
2023-02-26T02:39:24.810Z,36.42
2023-02-26T02:42:03.242Z,36.39
2023-02-26T02:44:32.800Z,36.38
2023-02-26T02:47:01.896Z,36.32
2023-02-26T02:49:36.908Z,36.38
2023-02-26T02:52:16.232Z,36.46
2023-02-26T02:54:47.609Z,36.42
2023-02-26T02:57:23.540Z,36.29
2023-02-26T02:59:54.925Z,36.42
2023-02-26T03:02:30.903Z,36.34
2023-02-26T03:04:57.971Z,36.31
2023-02-26T03:07:25.047Z,36.26
2023-02-26T03:09:51.960Z,36.27
2023-02-26T03:12:19.252Z,36.21
2023-02-26T03:14:48.091Z,36.18
2023-02-26T03:17:20.887Z,36.17
2023-02-26T03:20:06.999Z,36.19
2023-02-26T03:22:37.463Z,36.21
2023-02-26T03:25:21.929Z,36.12
2023-02-26T03:27:50.003Z,36.10
2023-02-26T03:30:46.018Z,36.06
2023-02-26T03:33:50.002Z,36.05
2023-02-26T03:36:26.801Z,35.95
2023-02-26T03:39:27.450Z,35.85
2023-02-26T03:42:18.986Z,35.96
2023-02-26T03:45:01.199Z,35.98
2023-02-26T03:47:30.957Z,36.04
2023-02-26T03:50:17.998Z,36.06
2023-02-26T03:52:54.017Z,36.15
2023-02-26T03:56:12.968Z,36.17
2023-02-26T03:59:03.010Z,36.28
2023-02-26T04:02:16.054Z,36.45
2023-02-26T04:04:53.697Z,36.54
2023-02-26T04:07:23.476Z,36.53
2023-02-26T04:09:53.644Z,36.59
2023-02-26T04:12:28.424Z,36.80
2023-02-26T04:14:57.571Z,36.94
2023-02-26T04:17:27.061Z,37.07
2023-02-26T04:19:57.081Z,37.14
2023-02-26T04:22:26.366Z,37.24
2023-02-26T04:25:01.085Z,37.32
2023-02-26T04:27:31.080Z,37.37
2023-02-26T04:30:01.069Z,37.37
2023-02-26T04:32:32.132Z,37.15
2023-02-26T04:42:48.688Z,37.00
2023-02-26T04:45:22.169Z,36.99
2023-02-26T04:47:50.800Z,37.13
2023-02-26T04:50:19.183Z,37.14
2023-02-26T04:52:50.265Z,37.21
2023-02-26T04:55:19.200Z,37.13
2023-02-26T04:57:47.373Z,37.24
2023-02-26T05:00:16.796Z,37.29
2023-02-26T05:02:44.953Z,37.17
2023-02-26T05:05:12.979Z,37.14
2023-02-26T05:07:46.253Z,37.07
2023-02-26T05:10:33.639Z,37.04
2023-02-26T05:13:01.956Z,37.06
2023-02-26T05:23:09.428Z,37.19
2023-02-26T05:25:38.022Z,37.16
2023-02-26T05:28:07.380Z,37.22
2023-02-26T05:30:35.876Z,37.19
2023-02-26T05:33:04.156Z,37.14
2023-02-26T05:35:34.152Z,37.21
2023-02-26T05:38:02.422Z,37.03
2023-02-26T05:40:30.623Z,37.12
2023-02-26T05:42:59.387Z,36.98
2023-02-26T05:45:27.456Z,36.96
2023-02-26T05:47:56.755Z,36.91
2023-02-26T05:50:25.019Z,36.90
2023-02-26T05:52:54.031Z,36.92
2023-02-26T05:55:22.243Z,36.75
2023-02-26T05:57:53.248Z,36.85
2023-02-26T06:00:22.624Z,36.72
2023-02-26T06:02:50.842Z,36.75
2023-02-26T06:05:19.920Z,36.87
2023-02-26T06:07:48.555Z,36.90
2023-02-26T06:10:17.705Z,36.93
2023-02-26T06:15:32.535Z,39.11
2023-02-26T06:18:00.646Z,37.32
2023-02-26T06:20:30.905Z,36.95
2023-02-26T06:22:59.248Z,37.03
2023-02-26T06:25:28.333Z,36.85
2023-02-26T06:27:56.558Z,36.85
2023-02-26T06:30:24.720Z,36.81
2023-02-26T06:32:52.997Z,36.77
2023-02-26T06:35:21.168Z,36.78
2023-02-26T06:37:50.325Z,36.92
2023-02-26T06:40:18.659Z,36.95
2023-02-26T06:42:46.820Z,36.97
2023-02-26T06:45:15.229Z,36.87
2023-02-26T06:47:43.382Z,36.92
2023-02-26T06:50:12.078Z,36.78
2023-02-26T06:52:40.204Z,36.81
2023-02-26T06:55:09.343Z,36.76
2023-02-26T06:57:38.851Z,36.57
2023-02-26T07:00:08.484Z,36.77
2023-02-26T07:02:37.033Z,36.72
2023-02-26T07:05:10.071Z,36.70
2023-02-26T07:07:38.948Z,36.71
2023-02-26T07:10:07.667Z,36.70
2023-02-26T07:12:36.128Z,36.69
2023-02-26T07:15:06.215Z,36.54
2023-02-26T07:17:34.738Z,36.53
2023-02-26T07:20:06.717Z,36.44
2023-02-26T07:22:35.246Z,36.38
2023-02-26T07:25:05.051Z,36.16
2023-02-26T07:27:33.818Z,36.12
2023-02-26T07:30:02.231Z,36.14
2023-02-26T07:32:30.662Z,36.07
2023-02-26T07:34:59.012Z,35.97
2023-02-26T07:37:27.351Z,35.90
2023-02-26T07:39:55.849Z,35.83
2023-02-26T07:42:24.045Z,35.85
2023-02-26T07:44:56.602Z,35.85
2023-02-26T07:47:24.941Z,35.80
2023-02-26T07:49:53.160Z,35.72
2023-02-26T07:52:22.565Z,35.48
2023-02-26T07:54:50.749Z,35.37
2023-02-26T07:57:19.327Z,35.28
2023-02-26T07:59:47.533Z,35.33
2023-02-26T08:02:15.769Z,35.21
2023-02-26T08:04:44.617Z,35.20
2023-02-26T08:07:13.170Z,35.21
2023-02-26T08:09:41.462Z,35.03
2023-02-26T08:12:10.714Z,34.97
2023-02-26T08:14:43.246Z,34.98
2023-02-26T08:17:11.789Z,34.93
2023-02-26T08:19:40.522Z,34.68
2023-02-26T08:22:08.683Z,34.66
2023-02-26T08:24:39.503Z,34.63
2023-02-26T08:27:11.705Z,34.63
2023-02-26T08:29:41.350Z,34.76
2023-02-26T08:32:11.227Z,34.72
2023-02-26T08:34:39.852Z,34.71
2023-02-26T08:37:09.492Z,34.47
2023-02-26T08:39:39.307Z,34.39
2023-02-26T08:42:08.137Z,34.23
2023-02-26T08:44:38.316Z,34.11
2023-02-26T08:47:06.996Z,34.24
2023-02-26T08:49:35.989Z,34.19
2023-02-26T08:52:05.191Z,34.10
2023-02-26T08:54:33.993Z,33.98
2023-02-26T08:57:03.627Z,34.06
2023-02-26T08:59:31.887Z,33.92
2023-02-26T09:02:00.273Z,33.85
2023-02-26T09:04:31.028Z,33.75
2023-02-26T09:07:00.598Z,33.78
2023-02-26T09:09:31.504Z,33.46
2023-02-26T09:11:59.832Z,33.53
2023-02-26T09:22:06.892Z,32.92
2023-02-26T09:24:37.407Z,32.63
2023-02-26T09:27:08.933Z,32.66
2023-02-26T09:29:39.902Z,32.44
2023-02-26T09:32:08.928Z,32.69
2023-02-26T09:34:40.841Z,32.70
2023-02-26T09:37:09.653Z,32.37
2023-02-26T09:39:37.909Z,32.30
2023-02-26T09:42:38.439Z,32.28
2023-02-26T09:45:08.062Z,32.03
2023-02-26T09:47:41.890Z,31.90
2023-02-26T09:50:39.525Z,31.86
2023-02-26T09:53:20.089Z,31.67
2023-02-26T09:55:50.951Z,31.63
2023-02-26T09:58:29.436Z,31.55
2023-02-26T10:01:03.970Z,31.51
2023-02-26T10:03:52.141Z,31.45
2023-02-26T10:06:41.726Z,31.25
2023-02-26T10:09:38.541Z,31.17
2023-02-26T10:12:24.890Z,31.01
2023-02-26T10:14:58.764Z,31.24
2023-02-26T10:17:40.951Z,31.23
2023-02-26T10:20:24.831Z,31.20
2023-02-26T10:23:06.638Z,31.16
2023-02-26T10:25:42.440Z,30.86
2023-02-26T10:28:56.158Z,31.12
2023-02-26T10:31:33.873Z,31.07
2023-02-26T10:34:05.853Z,30.94
2023-02-26T10:36:52.457Z,30.66
2023-02-26T10:39:32.163Z,30.40
2023-02-26T10:42:09.742Z,30.43
2023-02-26T10:44:47.604Z,30.41
2023-02-26T10:47:24.412Z,30.48
2023-02-26T10:49:59.699Z,30.33
2023-02-26T10:52:28.886Z,30.06
2023-02-26T10:54:56.899Z,30.07
2023-02-26T10:57:28.733Z,30.17
2023-02-26T11:00:01.089Z,30.30
2023-02-26T11:02:44.306Z,30.50
2023-02-26T11:05:26.564Z,30.65
2023-02-26T11:07:56.520Z,30.66
2023-02-26T11:10:47.648Z,30.73
2023-02-26T11:13:17.613Z,30.71
2023-02-26T11:15:52.493Z,30.49
2023-02-26T11:18:40.781Z,30.33
2023-02-26T11:21:09.155Z,30.18
2023-02-26T11:23:37.616Z,30.15
2023-02-26T11:26:07.990Z,30.26
2023-02-26T11:28:44.785Z,30.29
2023-02-26T11:31:16.622Z,30.38
2023-02-26T11:33:59.558Z,30.33
2023-02-26T11:36:29.519Z,30.14
2023-02-26T11:39:06.390Z,30.18
2023-02-26T11:41:39.184Z,29.80
2023-02-26T11:44:09.988Z,29.73
2023-02-26T11:46:42.449Z,29.88
2023-02-26T11:49:12.220Z,29.84
2023-02-26T11:51:48.259Z,29.89
2023-02-26T11:54:24.752Z,29.88
2023-02-26T11:56:53.186Z,29.78
2023-02-26T11:59:23.956Z,29.85
2023-02-26T12:01:53.256Z,29.79
2023-02-26T12:04:27.719Z,29.76
2023-02-26T12:06:56.458Z,29.94
2023-02-26T12:09:25.117Z,29.80
2023-02-26T12:12:02.339Z,29.81
2023-02-26T12:15:02.862Z,29.66
2023-02-26T12:17:43.780Z,29.70
2023-02-26T12:20:19.263Z,29.46
2023-02-26T12:23:02.706Z,29.33
2023-02-26T12:25:43.980Z,29.13
2023-02-26T12:28:32.735Z,29.29
2023-02-26T12:31:24.915Z,29.26
2023-02-26T12:34:08.281Z,29.00
2023-02-26T12:37:05.856Z,28.93
2023-02-26T12:39:43.281Z,28.97
2023-02-26T12:42:23.388Z,29.03
2023-02-26T12:44:54.368Z,29.18
2023-02-26T12:47:40.455Z,29.15
2023-02-26T12:50:11.398Z,29.07
2023-02-26T12:53:02.617Z,28.97
2023-02-26T12:55:42.649Z,28.85
2023-02-26T12:58:17.777Z,28.79
2023-02-26T13:00:49.401Z,28.80
2023-02-26T13:03:46.868Z,28.78
2023-02-26T13:06:39.506Z,28.82
2023-02-26T13:09:44.900Z,28.80
2023-02-26T13:12:34.749Z,28.97
2023-02-26T13:15:30.853Z,29.06
2023-02-26T13:18:06.672Z,29.19
2023-02-26T13:20:36.745Z,29.18
2023-02-26T13:23:32.652Z,29.12
2023-02-26T13:26:03.065Z,29.07
2023-02-26T13:28:40.305Z,29.04
2023-02-26T13:31:16.338Z,28.97
2023-02-26T13:33:44.668Z,28.89
2023-02-26T13:36:12.816Z,29.09
2023-02-26T13:39:11.362Z,29.03
2023-02-26T13:41:42.333Z,29.11
2023-02-26T13:44:38.811Z,28.90
2023-02-26T13:47:42.866Z,28.86
2023-02-26T13:50:19.905Z,28.85
2023-02-26T13:53:03.542Z,28.83
2023-02-26T13:55:37.336Z,28.65
2023-02-26T13:58:18.206Z,28.71
2023-02-26T14:00:48.233Z,28.89
2023-02-26T14:03:16.931Z,28.92
2023-02-26T14:05:48.791Z,28.97
2023-02-26T14:08:22.629Z,29.09
2023-02-26T14:10:59.034Z,29.04
2023-02-26T14:13:39.269Z,28.99
2023-02-26T14:16:21.571Z,28.98
2023-02-26T14:18:54.705Z,29.02
2023-02-26T14:21:57.693Z,29.01
2023-02-26T14:24:32.451Z,29.21
2023-02-26T14:27:13.431Z,29.20
2023-02-26T14:30:21.653Z,29.08
2023-02-26T14:32:57.319Z,29.09
2023-02-26T14:35:30.264Z,29.27
2023-02-26T14:38:21.487Z,29.34
2023-02-26T14:40:51.789Z,29.25
2023-02-26T14:43:31.738Z,29.27
2023-02-26T14:45:59.787Z,29.31
2023-02-26T14:48:32.639Z,29.45
2023-02-26T14:51:04.149Z,29.49
2023-02-26T14:53:58.828Z,29.49
2023-02-26T14:56:41.929Z,29.65
2023-02-26T14:59:27.581Z,29.69
2023-02-26T15:02:26.713Z,29.85
2023-02-26T15:05:06.848Z,29.79
2023-02-26T15:07:48.342Z,29.92
2023-02-26T15:10:33.964Z,29.96
2023-02-26T15:13:37.404Z,30.03
2023-02-26T15:16:25.570Z,30.19
2023-02-26T15:19:15.040Z,30.18
2023-02-26T15:21:53.098Z,30.28
2023-02-26T15:24:21.233Z,30.33
2023-02-26T15:26:58.687Z,30.60
2023-02-26T15:29:29.099Z,30.64
2023-02-26T15:32:06.080Z,30.72
2023-02-26T15:34:35.081Z,30.88
2023-02-26T15:37:03.555Z,30.94
2023-02-26T15:39:31.661Z,31.00
2023-02-26T15:41:59.728Z,31.11
2023-02-26T15:44:30.441Z,31.22
2023-02-26T15:47:01.443Z,31.30
2023-02-26T15:49:37.254Z,31.24
2023-02-26T15:52:07.959Z,31.36
2023-02-26T15:54:42.613Z,31.39
2023-02-26T15:57:15.776Z,31.40
2023-02-26T15:59:45.740Z,31.49
2023-02-26T16:02:21.052Z,31.59
2023-02-26T16:04:49.481Z,31.68
2023-02-26T16:07:17.482Z,31.76
2023-02-26T16:09:54.181Z,31.85
2023-02-26T16:12:30.142Z,31.83
2023-02-26T16:15:04.232Z,31.88
2023-02-26T16:17:34.217Z,31.97
2023-02-26T16:20:04.422Z,32.01
2023-02-26T16:22:38.256Z,31.97
2023-02-26T16:25:25.381Z,31.94
2023-02-26T16:28:07.855Z,31.99
2023-02-26T16:30:37.750Z,32.09
2023-02-26T16:33:11.475Z,32.10
2023-02-26T16:35:54.735Z,32.20
2023-02-26T16:38:32.846Z,32.15
2023-02-26T16:41:06.017Z,32.14
2023-02-26T16:43:43.366Z,32.14
2023-02-26T16:46:44.006Z,32.18
2023-02-26T16:49:25.179Z,32.22
2023-02-26T16:51:54.124Z,32.37
2023-02-26T16:54:26.502Z,32.40
2023-02-26T16:56:59.246Z,32.44
2023-02-26T16:59:32.456Z,32.66
2023-02-26T17:02:19.874Z,32.54
2023-02-26T17:04:54.655Z,32.63
2023-02-26T17:07:35.559Z,32.67
2023-02-26T17:10:09.508Z,32.88
2023-02-26T17:12:41.013Z,32.75
2023-02-26T17:15:33.807Z,32.70
2023-02-26T17:18:02.974Z,32.66
2023-02-26T17:20:33.526Z,32.64
2023-02-26T17:23:03.496Z,32.61
2023-02-26T17:25:37.870Z,32.68
2023-02-26T17:28:06.496Z,32.68
2023-02-26T17:30:34.948Z,32.70
2023-02-26T17:33:07.931Z,32.80
2023-02-26T17:35:36.374Z,32.83
2023-02-26T17:38:06.126Z,32.81
2023-02-26T17:40:36.593Z,32.79
2023-02-26T17:43:05.922Z,33.04
2023-02-26T17:45:34.392Z,32.94
2023-02-26T17:48:03.452Z,32.93
2023-02-26T17:50:52.018Z,32.98
2023-02-26T17:53:20.961Z,33.11
2023-02-26T17:55:50.456Z,33.03
2023-02-26T18:03:10.383Z,33.26
2023-02-26T18:05:41.898Z,33.26
2023-02-26T18:08:35.376Z,33.21
2023-02-26T18:11:04.255Z,33.31
2023-02-26T18:13:33.533Z,33.32
2023-02-26T18:16:02.906Z,33.38
2023-02-26T18:18:34.417Z,33.46
2023-02-26T18:21:03.120Z,33.54
2023-02-26T18:23:34.524Z,33.50
2023-02-26T18:26:03.112Z,33.66
2023-02-26T18:28:32.336Z,33.71
2023-02-26T18:34:08.781Z,35.81
2023-02-26T18:36:37.697Z,33.89
2023-02-26T18:46:55.998Z,33.86
2023-02-26T18:49:24.589Z,34.09
2023-02-26T18:51:54.727Z,34.10
2023-02-26T18:54:22.949Z,34.15
2023-02-26T18:56:52.112Z,34.17
2023-02-26T18:59:20.533Z,34.19
2023-02-26T19:01:50.783Z,34.27
2023-02-26T19:04:19.067Z,34.29
2023-02-26T19:06:49.335Z,34.31
2023-02-26T19:09:17.892Z,34.40
2023-02-26T19:11:46.438Z,34.54
2023-02-26T19:14:14.651Z,34.53
2023-02-26T19:16:43.963Z,34.67
2023-02-26T19:19:19.126Z,34.64
2023-02-26T19:21:48.151Z,34.64
2023-02-26T19:24:17.814Z,34.80
2023-02-26T19:26:46.696Z,34.91
2023-02-26T19:29:16.669Z,34.86
2023-02-26T19:31:45.640Z,34.70
2023-02-26T19:34:15.009Z,34.70
2023-02-26T19:36:48.552Z,34.78
2023-02-26T19:39:18.581Z,34.75
2023-02-26T19:41:49.264Z,34.70
2023-02-26T19:44:17.668Z,34.84
2023-02-26T19:46:46.137Z,34.86
2023-02-26T19:49:14.610Z,34.91
2023-02-26T19:51:43.381Z,34.97
2023-02-26T19:54:13.025Z,35.08
2023-02-26T19:56:42.828Z,35.17
2023-02-26T19:59:12.759Z,35.25
2023-02-26T20:01:41.736Z,35.30
2023-02-26T20:04:12.225Z,35.31
2023-02-26T20:06:41.244Z,35.30
2023-02-26T20:09:14.758Z,35.39
2023-02-26T20:11:43.565Z,35.37
2023-02-26T20:14:12.442Z,35.47
2023-02-26T20:16:43.892Z,35.61
2023-02-26T20:19:14.662Z,35.34
2023-02-26T20:21:46.691Z,35.42
2023-02-26T20:24:16.299Z,35.35
2023-02-26T20:26:45.806Z,35.28
2023-02-26T20:29:18.805Z,35.25
2023-02-26T20:31:49.719Z,35.31
2023-02-26T20:34:20.297Z,35.42
2023-02-26T20:36:50.296Z,35.27
2023-02-26T20:39:21.428Z,35.23
2023-02-26T20:41:50.897Z,34.96
2023-02-26T20:44:19.222Z,35.00
2023-02-26T20:46:49.078Z,34.92
2023-02-26T20:49:17.615Z,35.10
2023-02-26T20:51:46.364Z,35.12
2023-02-26T20:54:15.221Z,35.24
2023-02-26T20:56:44.420Z,35.19
2023-02-26T20:59:12.979Z,35.19
2023-02-26T21:01:46.948Z,35.34
2023-02-26T21:04:15.637Z,35.37
2023-02-26T21:06:44.054Z,35.59
2023-02-26T21:09:13.660Z,35.84
2023-02-26T21:11:42.284Z,35.88
2023-02-26T21:14:10.750Z,35.91
2023-02-26T21:16:41.643Z,35.89
2023-02-26T21:19:10.162Z,36.05
2023-02-26T21:21:38.575Z,36.25
2023-02-26T21:24:08.314Z,36.56
2023-02-26T21:26:36.543Z,36.53
2023-02-26T21:29:05.523Z,36.60
2023-02-26T21:31:36.317Z,36.61
2023-02-26T21:34:23.711Z,36.80
2023-02-26T21:36:56.672Z,36.91
2023-02-26T21:39:27.176Z,37.10
2023-02-26T21:41:55.441Z,37.26
2023-02-26T21:44:24.171Z,37.36
2023-02-26T21:46:53.364Z,37.37
2023-02-26T21:49:21.770Z,37.47
2023-02-26T21:51:50.026Z,37.27
2023-02-26T21:54:20.710Z,37.35
2023-02-26T21:56:49.105Z,37.50
2023-02-26T21:59:18.340Z,37.59
2023-02-26T22:01:46.621Z,37.68
2023-02-26T22:04:17.455Z,37.94
2023-02-26T22:06:46.858Z,38.06
2023-02-26T22:09:17.300Z,38.17
2023-02-26T22:11:46.528Z,38.27
2023-02-26T22:14:15.170Z,38.32
2023-02-26T22:16:43.806Z,38.40
2023-02-26T22:19:12.463Z,38.36
2023-02-26T22:21:40.827Z,38.35
2023-02-26T22:24:09.614Z,38.33
2023-02-26T22:26:37.862Z,38.29
2023-02-26T22:29:06.481Z,38.28
2023-02-26T22:31:34.789Z,38.32
2023-02-26T22:34:03.318Z,38.44
2023-02-26T22:36:32.368Z,38.43
2023-02-26T22:39:00.625Z,38.42
2023-02-26T22:41:29.103Z,38.37
2023-02-26T22:43:57.497Z,38.31
2023-02-26T22:46:28.550Z,38.31
2023-02-26T22:48:56.948Z,38.56
2023-02-26T22:51:25.867Z,38.74
2023-02-26T22:53:54.409Z,38.83
2023-02-26T22:56:22.504Z,38.84
2023-02-26T22:58:50.901Z,38.91
2023-02-26T23:01:19.614Z,38.93
2023-02-26T23:03:47.905Z,38.96
2023-02-26T23:06:16.507Z,39.13
2023-02-26T23:08:47.744Z,39.32
2023-02-26T23:11:16.018Z,39.41
2023-02-26T23:13:44.301Z,39.45
2023-02-26T23:16:32.156Z,39.45
2023-02-26T23:19:02.927Z,39.38
2023-02-26T23:21:32.481Z,39.43
2023-02-26T23:24:00.557Z,39.47
2023-02-26T23:26:28.739Z,39.38
2023-02-26T23:28:56.817Z,39.31
2023-02-26T23:31:25.784Z,39.15
2023-02-26T23:33:54.484Z,38.73
2023-02-26T23:36:23.064Z,38.58
2023-02-26T23:38:51.571Z,38.57
2023-02-26T23:41:20.169Z,38.67
2023-02-26T23:43:48.951Z,38.86
2023-02-26T23:46:19.986Z,38.92
2023-02-26T23:48:50.898Z,38.81
2023-02-26T23:51:19.075Z,38.80
2023-02-26T23:53:47.870Z,38.86
2023-02-26T23:56:16.361Z,38.91
2023-02-26T23:58:45.099Z,39.06
